Time;durP1;ratioP1;P1;durP2;ratioP2;P2;SDS_P1;SDS_P2;PMS_P1;PMS_P2;Temp;Humidity;BMP_temperature;BMP_pressure;BME280_temperature;BME280_humidity;BME280_pressure;Samples;Min_cycle;Max_cycle;Signal;HPM_P1;HPM_P2
2021/12/01 00:00:19;;;;;;;0.20;0.20;;;;;;;3.50;77.58;96685.44;6369883;27;20214;-66
2021/12/01 00:03:21;;;;;;;0.30;0.30;;;;;;;3.58;77.20;96684.00;6356479;27;20651;-67
2021/12/01 00:06:23;;;;;;;0.20;0.20;;;;;;;3.57;77.25;96687.56;6369443;27;20198;-66
2021/12/01 00:09:25;;;;;;;0.43;0.43;;;;;;;3.55;78.01;96701.63;6368460;27;20220;-66
2021/12/01 00:12:28;;;;;;;0.20;0.20;;;;;;;3.55;78.00;96702.47;6369344;27;20249;-66
2021/12/01 00:15:30;;;;;;;0.13;0.13;;;;;;;3.48;78.08;96706.44;6369004;27;20193;-68
2021/12/01 00:18:32;;;;;;;0.20;0.20;;;;;;;3.50;78.69;96693.28;6351278;27;20253;-67
2021/12/01 00:21:34;;;;;;;0.20;0.20;;;;;;;3.55;77.67;96699.03;6369020;27;20657;-66
2021/12/01 00:24:36;;;;;;;0.30;0.30;;;;;;;3.75;77.08;96697.66;6369533;27;20194;-66
2021/12/01 00:27:38;;;;;;;0.20;0.20;;;;;;;3.77;77.16;96688.78;6368823;27;20864;-67
2021/12/01 00:30:41;;;;;;;0.10;0.10;;;;;;;3.75;76.75;96697.66;6350691;27;20686;-67
2021/12/01 00:33:43;;;;;;;0.10;0.10;;;;;;;3.77;77.30;96701.00;6369173;27;20229;-67
2021/12/01 00:36:45;;;;;;;0.10;0.10;;;;;;;3.76;77.30;96691.50;6368903;27;20570;-67
2021/12/01 00:39:47;;;;;;;0.30;0.30;;;;;;;3.76;78.18;96696.72;6368746;27;20232;-66
2021/12/01 00:42:49;;;;;;;0.10;0.10;;;;;;;3.72;77.97;96709.97;6369206;27;20192;-66
2021/12/01 00:45:57;;;;;;;0.10;0.10;;;;;;;3.65;78.45;96721.78;6368890;27;20248;-66
2021/12/01 00:48:59;;;;;;;0.30;0.20;;;;;;;3.65;78.45;96723.53;6350271;28;20352;-67
2021/12/01 00:52:02;;;;;;;0.10;0.10;;;;;;;3.78;77.58;96723.56;6368534;28;20583;-66
2021/12/01 00:55:05;;;;;;;0.13;0.13;;;;;;;3.75;77.65;96721.16;6350334;28;20605;-67
2021/12/01 00:58:07;;;;;;;0.10;0.10;;;;;;;3.78;78.23;96749.66;6368912;28;20268;-67
2021/12/01 01:01:10;;;;;;;0.10;0.10;;;;;;;3.81;77.75;96718.94;6368717;28;20186;-67
2021/12/01 01:04:13;;;;;;;0.07;0.07;;;;;;;3.80;78.35;96738.13;6369139;28;20187;-67
2021/12/01 01:07:15;;;;;;;0.30;0.00;;;;;;;3.83;78.40;96739.72;6368691;28;20195;-68
2021/12/01 01:10:34;;;;;;;0.10;0.10;;;;;;;3.87;78.54;96720.31;6368431;28;20832;-69
2021/12/01 01:16:58;;;;;;;0.00;0.00;;;;;;;3.94;78.42;96753.69;6368654;28;20198;-67
2021/12/01 01:20:00;;;;;;;0.00;0.00;;;;;;;3.96;78.51;96762.28;6371171;27;20558;-67
2021/12/01 01:23:03;;;;;;;0.00;0.00;;;;;;;3.86;79.43;96748.19;6373391;27;20288;-67
2021/12/01 01:26:10;;;;;;;0.00;0.00;;;;;;;3.78;79.96;96741.81;6354974;27;20194;-67
2021/12/01 01:29:12;;;;;;;0.00;0.00;;;;;;;3.84;80.64;96749.22;6373010;27;20699;-66
2021/12/01 01:32:15;;;;;;;0.00;0.00;;;;;;;3.83;80.65;96734.50;6373321;27;20194;-67
2021/12/01 01:35:18;;;;;;;0.00;0.00;;;;;;;3.82;80.98;96746.72;6354730;27;20203;-67
2021/12/01 01:38:21;;;;;;;0.00;0.00;;;;;;;3.83;81.33;96724.91;6373498;27;20307;-67
2021/12/01 01:41:24;;;;;;;0.10;0.10;;;;;;;3.79;81.10;96720.00;6372661;27;20227;-67
2021/12/01 01:44:26;;;;;;;0.00;0.00;;;;;;;3.81;81.31;96707.66;6372999;27;20180;-66
2021/12/01 01:47:28;;;;;;;0.10;0.10;;;;;;;3.89;81.00;96726.25;6373058;27;20249;-67
2021/12/01 01:50:36;;;;;;;1.63;0.10;;;;;;;3.85;81.47;96707.34;6372705;27;20245;-69
2021/12/01 01:53:40;;;;;;;0.10;0.10;;;;;;;3.81;82.05;96745.03;6372732;27;20192;-68
2021/12/01 01:56:43;;;;;;;0.30;0.00;;;;;;;3.92;81.28;96699.94;6372758;27;20194;-67
2021/12/01 01:59:45;;;;;;;0.00;0.00;;;;;;;4.00;81.57;96721.09;6372780;27;20184;-67
2021/12/01 02:02:48;;;;;;;0.10;0.10;;;;;;;3.96;81.47;96694.41;6354420;27;20524;-66
2021/12/01 02:05:51;;;;;;;0.10;0.10;;;;;;;4.04;81.70;96719.97;6372371;27;20211;-70
2021/12/01 02:08:57;;;;;;;0.10;0.10;;;;;;;4.12;81.38;96694.16;6372572;27;20208;-67
2021/12/01 02:12:02;;;;;;;0.13;0.13;;;;;;;4.14;81.49;96728.81;6372193;27;20316;-67
2021/12/01 02:15:05;;;;;;;0.10;0.10;;;;;;;4.13;80.84;96690.59;6372190;27;20207;-67
2021/12/01 02:18:07;;;;;;;0.10;0.10;;;;;;;4.23;80.92;96691.63;6372409;27;20202;-66
2021/12/01 02:21:12;;;;;;;0.20;0.20;;;;;;;4.19;81.48;96703.25;6371650;27;20198;-66
2021/12/01 02:24:15;;;;;;;0.77;0.10;;;;;;;4.14;81.46;96702.72;6372146;27;20326;-68
2021/12/01 02:27:17;;;;;;;0.10;0.10;;;;;;;4.03;81.74;96700.84;6372142;27;20184;-67
2021/12/01 02:30:19;;;;;;;0.20;0.20;;;;;;;4.10;80.57;96690.81;6370812;27;20613;-69
2021/12/01 02:33:21;;;;;;;0.17;0.17;;;;;;;4.18;80.87;96659.78;6372001;27;20261;-68
2021/12/01 02:36:23;;;;;;;0.10;0.10;;;;;;;4.07;81.33;96673.59;6371376;27;20194;-67
2021/12/01 02:39:26;;;;;;;0.10;0.10;;;;;;;3.97;81.55;96666.53;6371560;27;20248;-69
2021/12/01 02:42:28;;;;;;;0.40;0.10;;;;;;;4.09;81.16;96673.50;6353128;27;20582;-67
2021/12/01 02:45:30;;;;;;;0.10;0.10;;;;;;;4.36;79.60;96649.81;6371648;27;20543;-67
2021/12/01 02:48:41;;;;;;;0.10;0.10;;;;;;;4.37;78.83;96646.25;6371719;27;20201;-67
2021/12/01 02:51:43;;;;;;;0.10;0.10;;;;;;;4.41;78.81;96666.81;6370761;27;20616;-67
2021/12/01 02:54:45;;;;;;;0.30;0.10;;;;;;;4.33;78.73;96663.91;6353078;27;20203;-67
2021/12/01 02:57:47;;;;;;;0.10;0.10;;;;;;;4.20;79.24;96644.00;6371393;27;20690;-67
2021/12/01 03:00:51;;;;;;;0.10;0.10;;;;;;;4.17;79.94;96645.06;6371127;27;20194;-67
2021/12/01 03:03:54;;;;;;;0.10;0.10;;;;;;;4.12;79.55;96643.72;6352836;27;20210;-68
2021/12/01 03:06:58;;;;;;;0.23;0.23;;;;;;;4.04;80.16;96662.53;6370785;27;20663;-67
2021/12/01 03:10:01;;;;;;;0.10;0.10;;;;;;;4.00;80.77;96666.28;6370743;27;20310;-67
2021/12/01 03:13:03;;;;;;;0.20;0.20;;;;;;;4.05;80.57;96667.66;6370580;27;20228;-67
2021/12/01 03:16:06;;;;;;;0.10;0.10;;;;;;;4.15;80.12;96667.00;6370509;27;20276;-67
2021/12/01 03:19:08;;;;;;;0.20;0.20;;;;;;;4.17;80.92;96680.78;6352590;27;20185;-67
2021/12/01 03:22:14;;;;;;;0.20;0.20;;;;;;;4.30;79.74;96664.13;6370365;27;20196;-67
2021/12/01 03:25:16;;;;;;;0.10;0.10;;;;;;;4.26;80.49;96670.53;6352530;27;20267;-66
2021/12/01 03:28:19;;;;;;;0.13;0.10;;;;;;;4.22;80.81;96692.56;6370644;27;20244;-67
2021/12/01 03:31:21;;;;;;;0.10;0.10;;;;;;;4.30;79.55;96690.25;6370006;27;20349;-68
2021/12/01 03:34:23;;;;;;;0.10;0.10;;;;;;;4.35;79.91;96695.16;6370396;27;20196;-67
2021/12/01 03:37:25;;;;;;;0.13;0.13;;;;;;;4.35;80.36;96701.22;6370324;27;20202;-69
2021/12/01 03:40:28;;;;;;;0.10;0.10;;;;;;;4.36;79.88;96712.50;6370099;27;20178;-67
2021/12/01 03:43:30;;;;;;;0.10;0.10;;;;;;;4.40;79.76;96725.19;6369702;27;20192;-67
2021/12/01 03:46:32;;;;;;;0.10;0.10;;;;;;;4.41;79.73;96729.50;6370134;27;20196;-67
2021/12/01 03:49:34;;;;;;;0.20;0.20;;;;;;;4.41;80.18;96732.09;6369752;27;20272;-67
2021/12/01 03:52:37;;;;;;;0.10;0.10;;;;;;;4.43;80.41;96745.91;6351466;27;20588;-67
2021/12/01 03:55:39;;;;;;;0.17;0.17;;;;;;;4.42;79.57;96757.28;6369731;27;20705;-67
2021/12/01 03:58:41;;;;;;;0.10;0.10;;;;;;;4.43;80.11;96747.66;6369900;27;20200;-67
2021/12/01 04:01:43;;;;;;;0.10;0.10;;;;;;;4.49;80.26;96762.09;6369424;27;20269;-67
2021/12/01 04:04:45;;;;;;;0.20;0.20;;;;;;;4.49;79.87;96776.00;6369158;27;20685;-67
2021/12/01 04:07:47;;;;;;;0.20;0.20;;;;;;;4.52;80.41;96778.38;6369801;27;20211;-67
2021/12/01 04:10:49;;;;;;;0.10;0.10;;;;;;;4.54;80.33;96786.94;6369088;27;20303;-67
2021/12/01 04:13:51;;;;;;;0.20;0.20;;;;;;;4.57;80.82;96773.66;6369213;27;20196;-72
2021/12/01 04:16:53;;;;;;;0.13;0.13;;;;;;;4.55;80.50;96785.16;6369512;27;20726;-66
2021/12/01 04:19:55;;;;;;;0.10;0.10;;;;;;;4.52;80.01;96794.03;6369056;27;20246;-67
2021/12/01 04:22:58;;;;;;;0.20;0.20;;;;;;;4.53;80.35;96790.50;6369076;27;20231;-67
2021/12/01 04:26:01;;;;;;;0.20;0.20;;;;;;;4.54;80.81;96793.94;6369625;27;20193;-68
2021/12/01 04:29:05;;;;;;;0.20;0.20;;;;;;;4.53;81.26;96795.72;6369257;27;20683;-67
2021/12/01 04:32:08;;;;;;;0.27;0.27;;;;;;;4.59;80.67;96799.69;6350704;27;20192;-70
2021/12/01 04:35:10;;;;;;;0.13;0.13;;;;;;;4.61;80.49;96803.00;6368959;27;20275;-67
2021/12/01 04:38:12;;;;;;;0.20;0.20;;;;;;;4.62;80.74;96802.91;6369592;27;20195;-67
2021/12/01 04:41:14;;;;;;;0.93;0.20;;;;;;;4.61;80.96;96800.41;6368630;27;20657;-67
2021/12/01 04:44:19;;;;;;;1.17;0.20;;;;;;;4.62;80.88;96802.06;6369157;27;20203;-67
2021/12/01 04:47:28;;;;;;;0.30;0.30;;;;;;;4.62;80.74;96809.91;6368683;27;20233;-68
2021/12/01 04:50:30;;;;;;;0.23;0.23;;;;;;;4.58;80.95;96796.25;6368760;28;20564;-67
2021/12/01 04:53:32;;;;;;;0.27;0.27;;;;;;;4.58;80.80;96771.91;6369239;27;20242;-68
2021/12/01 04:56:36;;;;;;;0.30;0.30;;;;;;;4.60;81.25;96780.44;6355645;27;20548;-67
2021/12/01 04:59:38;;;;;;;0.20;0.20;;;;;;;4.67;80.29;96785.13;6374166;27;20240;-66
2021/12/01 05:02:41;;;;;;;0.10;0.10;;;;;;;4.70;80.54;96789.28;6373547;27;20196;-70
2021/12/01 05:05:43;;;;;;;0.20;0.20;;;;;;;4.70;80.70;96791.91;6374547;27;20202;-67
2021/12/01 05:08:45;;;;;;;0.20;0.20;;;;;;;4.68;81.13;96807.72;6374170;27;20194;-67
2021/12/01 05:11:48;;;;;;;0.40;0.30;;;;;;;4.72;80.69;96788.25;6373436;27;20657;-69
2021/12/01 05:14:50;;;;;;;0.10;0.10;;;;;;;4.75;80.37;96798.50;6373487;27;20257;-67
2021/12/01 05:17:52;;;;;;;0.20;0.20;;;;;;;4.76;79.87;96786.25;6373409;27;20282;-68
2021/12/01 05:20:54;;;;;;;0.30;0.20;;;;;;;4.76;80.53;96794.94;6373605;27;20202;-69
2021/12/01 05:23:56;;;;;;;0.20;0.20;;;;;;;4.79;80.65;96794.69;6373533;27;20192;-68
2021/12/01 05:26:58;;;;;;;0.20;0.20;;;;;;;4.82;80.22;96804.09;6373555;27;20198;-72
2021/12/01 05:30:00;;;;;;;0.10;0.10;;;;;;;4.90;79.35;96814.00;6373458;27;20214;-68
2021/12/01 05:33:08;;;;;;;0.10;0.10;;;;;;;4.87;79.49;96809.84;6373100;27;20185;-67
2021/12/01 05:36:16;;;;;;;0.20;0.20;;;;;;;4.90;79.51;96812.22;6373218;27;20184;-68
2021/12/01 05:39:18;;;;;;;0.10;0.10;;;;;;;4.93;79.54;96811.19;6355130;27;20191;-68
2021/12/01 05:42:20;;;;;;;0.33;0.30;;;;;;;4.92;80.04;96817.34;6372819;27;20720;-67
2021/12/01 05:45:22;;;;;;;0.20;0.20;;;;;;;4.89;80.45;96821.00;6372662;27;20216;-68
2021/12/01 05:48:24;;;;;;;0.20;0.20;;;;;;;4.90;80.61;96833.16;6373128;27;20791;-67
2021/12/01 05:51:26;;;;;;;0.20;0.20;;;;;;;4.91;81.11;96813.06;6372540;27;20211;-68
2021/12/01 05:54:28;;;;;;;0.20;0.20;;;;;;;4.88;81.92;96813.31;6354434;27;20644;-69
2021/12/01 05:57:30;;;;;;;0.30;0.23;;;;;;;4.85;81.79;96827.41;6372613;27;20192;-67
2021/12/01 06:00:33;;;;;;;0.60;0.30;;;;;;;4.87;81.43;96833.38;6354588;27;20216;-67
2021/12/01 06:03:38;;;;;;;0.30;0.30;;;;;;;4.92;80.31;96806.91;6372419;27;20293;-68
2021/12/01 06:06:41;;;;;;;1.23;0.20;;;;;;;4.99;81.14;96824.63;6372939;27;20179;-68
2021/12/01 06:09:43;;;;;;;0.20;0.20;;;;;;;5.02;80.68;96829.66;6353758;27;20245;-68
2021/12/01 06:12:46;;;;;;;0.20;0.20;;;;;;;5.07;79.86;96821.50;6372417;27;20324;-67
2021/12/01 06:15:51;;;;;;;0.20;0.20;;;;;;;5.08;79.63;96817.94;6371990;27;20538;-67
2021/12/01 06:18:53;;;;;;;0.73;0.30;;;;;;;5.11;78.53;96822.94;6371870;27;20604;-68
2021/12/01 06:21:55;;;;;;;0.20;0.20;;;;;;;5.20;77.74;96817.03;6372352;27;20241;-67
2021/12/01 06:24:57;;;;;;;0.20;0.20;;;;;;;5.27;77.61;96801.75;6371774;27;20242;-68
2021/12/01 06:28:00;;;;;;;0.27;0.27;;;;;;;5.29;77.80;96808.50;6353853;27;20185;-68
2021/12/01 06:31:02;;;;;;;0.53;0.53;;;;;;;5.24;77.89;96791.50;6371782;27;20292;-68
2021/12/01 06:34:04;;;;;;;0.60;0.20;;;;;;;5.25;77.99;96798.41;6371788;27;20667;-67
2021/12/01 06:37:06;;;;;;;0.20;0.20;;;;;;;5.29;77.51;96784.97;6371842;27;20196;-67
2021/12/01 06:40:10;;;;;;;0.20;0.10;;;;;;;5.33;77.82;96788.19;6371723;27;20200;-72
2021/12/01 06:43:13;;;;;;;0.20;0.20;;;;;;;5.37;77.64;96800.97;6352787;27;20575;-68
2021/12/01 06:46:15;;;;;;;0.20;0.20;;;;;;;5.43;77.23;96783.97;6360893;27;20283;-68
2021/12/01 06:49:17;;;;;;;0.33;0.33;;;;;;;5.42;77.20;96793.59;6353008;27;20211;-67
2021/12/01 06:52:19;;;;;;;0.17;0.17;;;;;;;5.46;76.38;96792.44;6371302;27;20697;-67
2021/12/01 06:55:23;;;;;;;0.20;0.20;;;;;;;5.49;76.40;96792.19;6371133;27;20600;-70
2021/12/01 06:58:25;;;;;;;0.30;0.30;;;;;;;5.54;76.21;96791.84;6345793;28;20661;-73
2021/12/01 07:01:27;;;;;;;0.20;0.20;;;;;;;5.55;76.82;96790.91;6367881;27;20184;-68
2021/12/01 07:04:30;;;;;;;0.30;0.30;;;;;;;5.58;76.60;96790.69;6353224;27;20199;-68
2021/12/01 07:07:32;;;;;;;0.10;0.10;;;;;;;5.64;76.30;96779.75;6370731;27;20192;-68
2021/12/01 07:10:35;;;;;;;0.20;0.20;;;;;;;5.60;76.24;96770.44;6370987;27;20219;-68
2021/12/01 07:13:37;;;;;;;0.20;0.20;;;;;;;5.66;75.60;96784.88;6352063;27;20710;-68
2021/12/01 07:16:39;;;;;;;0.30;0.20;;;;;;;5.70;75.61;96791.53;6369477;27;20672;-68
2021/12/01 07:19:41;;;;;;;0.10;0.10;;;;;;;5.66;76.43;96782.25;6370357;27;20193;-70
2021/12/01 07:22:43;;;;;;;0.10;0.10;;;;;;;5.69;76.39;96769.75;6352095;27;20193;-68
2021/12/01 07:25:45;;;;;;;0.20;0.20;;;;;;;5.77;75.64;96777.06;6369912;27;20212;-68
2021/12/01 07:28:47;;;;;;;0.10;0.10;;;;;;;5.79;75.59;96772.53;6369911;27;20690;-67
2021/12/01 07:31:49;;;;;;;0.27;0.20;;;;;;;5.79;75.64;96769.91;6351422;27;20204;-67
2021/12/01 07:34:51;;;;;;;0.10;0.10;;;;;;;5.79;75.93;96772.53;6370275;27;20203;-68
2021/12/01 07:37:54;;;;;;;0.20;0.20;;;;;;;5.75;76.86;96763.25;6351481;27;20203;-68
2021/12/01 07:40:56;;;;;;;0.20;0.20;;;;;;;5.72;77.27;96760.84;6369669;27;20193;-68
2021/12/01 07:43:58;;;;;;;0.10;0.10;;;;;;;5.70;76.83;96758.34;6351056;27;20193;-68
2021/12/01 07:47:01;;;;;;;0.20;0.10;;;;;;;5.70;77.45;96754.88;6350814;27;20196;-68
2021/12/01 07:50:05;;;;;;;0.23;0.17;;;;;;;5.72;76.60;96753.81;6351651;27;20292;-68
2021/12/01 07:53:07;;;;;;;1.03;0.20;;;;;;;5.79;76.09;96751.59;6350959;27;20581;-68
2021/12/01 07:56:10;;;;;;;0.10;0.10;;;;;;;5.84;75.94;96742.44;6369275;27;20184;-68
2021/12/01 07:59:15;;;;;;;0.20;0.20;;;;;;;5.92;75.96;96739.25;6369361;27;20189;-68
2021/12/01 08:02:17;;;;;;;0.20;0.20;;;;;;;6.04;75.16;96727.00;6350698;27;20227;-67
2021/12/01 08:05:19;;;;;;;0.20;0.20;;;;;;;6.11;74.98;96723.78;6369166;27;20214;-68
2021/12/01 08:08:22;;;;;;;0.20;0.20;;;;;;;6.18;74.97;96717.13;6369733;27;20251;-70
2021/12/01 08:11:24;;;;;;;0.20;0.20;;;;;;;6.27;74.37;96723.44;6368658;27;20335;-69
2021/12/01 08:14:26;;;;;;;0.10;0.10;;;;;;;6.35;74.46;96718.41;6351340;27;20661;-68
2021/12/01 08:17:28;;;;;;;0.20;0.20;;;;;;;6.39;73.91;96719.03;6368576;27;20201;-68
2021/12/01 08:20:30;;;;;;;0.10;0.10;;;;;;;6.47;73.80;96712.22;6368898;27;20215;-68
2021/12/01 08:23:32;;;;;;;0.10;0.10;;;;;;;6.48;74.35;96716.50;6368779;27;20197;-69
2021/12/01 08:26:34;;;;;;;0.10;0.10;;;;;;;6.47;74.86;96703.53;6368792;27;20229;-68
2021/12/01 08:29:36;;;;;;;0.80;0.20;;;;;;;6.48;74.64;96708.66;6368084;27;20666;-68
2021/12/01 08:32:45;;;;;;;0.80;0.20;;;;;;;6.44;75.61;96690.66;6350207;27;20583;-68
2021/12/01 08:35:47;;;;;;;0.20;0.20;;;;;;;6.37;76.09;96713.91;6350061;27;20193;-67
2021/12/01 08:38:49;;;;;;;1.70;0.10;;;;;;;6.39;74.88;96700.69;6368564;27;20552;-68
2021/12/01 08:41:51;;;;;;;0.50;0.10;;;;;;;6.39;75.65;96700.69;6368718;27;20185;-67
2021/12/01 08:44:53;;;;;;;0.10;0.10;;;;;;;6.39;75.16;96719.03;6368540;27;20250;-67
2021/12/01 08:47:55;;;;;;;0.10;0.10;;;;;;;6.42;75.19;96714.34;6368274;27;20185;-67
2021/12/01 08:51:01;;;;;;;0.20;0.20;;;;;;;6.45;75.32;96726.38;6368531;28;20215;-67
2021/12/01 08:54:04;;;;;;;0.20;0.20;;;;;;;6.55;73.90;96703.72;6334425;28;20188;-67
2021/12/01 08:57:06;;;;;;;0.10;0.10;;;;;;;6.63;74.45;96709.19;6368379;28;20201;-69
2021/12/01 09:00:09;;;;;;;0.10;0.10;;;;;;;6.63;75.36;96709.19;6368367;28;20203;-68
2021/12/01 09:03:15;;;;;;;0.10;0.10;;;;;;;6.59;76.49;96718.25;6349967;28;20684;-68
2021/12/01 09:06:18;;;;;;;0.10;0.10;;;;;;;6.48;76.96;96720.91;6368319;28;20189;-67
2021/12/01 09:09:20;;;;;;;0.30;0.30;;;;;;;6.42;76.62;96709.09;6368473;28;20188;-67
2021/12/01 09:12:22;;;;;;;1.23;0.20;;;;;;;6.40;77.17;96705.78;6368268;28;20233;-70
2021/12/01 09:15:24;;;;;;;0.30;0.20;;;;;;;6.41;77.38;96704.81;6367968;28;20240;-68
2021/12/01 09:18:27;;;;;;;0.20;0.20;;;;;;;6.46;76.73;96702.69;6368241;28;20196;-67
2021/12/01 09:21:29;;;;;;;0.30;0.30;;;;;;;6.50;76.76;96690.97;6368211;28;20257;-67
2021/12/01 09:24:35;;;;;;;0.10;0.10;;;;;;;6.51;76.53;96684.78;6368468;28;20216;-67
2021/12/01 09:27:37;;;;;;;0.13;0.13;;;;;;;6.51;77.58;96681.34;6368089;28;20283;-68
2021/12/01 09:30:39;;;;;;;0.10;0.10;;;;;;;6.48;77.32;96676.34;6368162;28;20208;-67
2021/12/01 09:33:41;;;;;;;0.30;0.20;;;;;;;6.46;77.20;96668.63;6368163;28;20190;-68
2021/12/01 09:36:43;;;;;;;0.10;0.10;;;;;;;6.45;77.76;96645.16;6332229;28;20705;-68
2021/12/01 09:39:46;;;;;;;0.33;0.10;;;;;;;6.43;76.86;96653.13;6368975;27;20200;-69
2021/12/01 09:42:51;;;;;;;0.10;0.10;;;;;;;6.47;77.32;96643.25;6373304;27;20546;-68
2021/12/01 09:45:54;;;;;;;0.30;0.20;;;;;;;6.47;77.16;96632.75;6354500;27;20193;-68
2021/12/01 09:48:57;;;;;;;0.10;0.10;;;;;;;6.49;76.14;96625.59;6353940;27;20219;-67
2021/12/01 09:52:00;;;;;;;0.10;0.10;;;;;;;6.51;76.08;96627.13;6354120;27;20206;-67
2021/12/01 09:55:04;;;;;;;0.10;0.10;;;;;;;6.54;75.63;96621.66;6372770;27;20753;-68
2021/12/01 09:58:12;;;;;;;0.10;0.10;;;;;;;6.58;75.49;96611.75;6372193;27;20189;-68
2021/12/01 10:01:18;;;;;;;0.20;0.20;;;;;;;6.61;75.21;96614.94;6372069;27;20175;-68
2021/12/01 10:04:21;;;;;;;0.20;0.20;;;;;;;6.59;75.90;96616.84;6372608;27;20200;-67
2021/12/01 10:07:34;;;;;;;0.20;0.20;;;;;;;6.57;76.45;96608.31;6378793;27;20679;-67
2021/12/01 10:10:37;;;;;;;0.10;0.10;;;;;;;6.57;76.35;96605.69;6372104;27;20308;-66
2021/12/01 10:13:42;;;;;;;0.10;0.10;;;;;;;6.62;76.46;96613.16;6371461;27;20273;-67
2021/12/01 10:16:46;;;;;;;0.50;0.20;;;;;;;6.66;77.02;96609.34;6372081;27;20349;-66
2021/12/01 10:20:12;;;;;;;0.10;0.10;;;;;;;6.69;76.58;96608.25;6371805;27;20202;-67
2021/12/01 10:23:16;;;;;;;0.20;0.20;;;;;;;6.75;76.07;96584.97;6371872;27;20191;-67
2021/12/01 10:26:23;;;;;;;0.20;0.20;;;;;;;6.84;75.37;96572.91;6371625;27;20189;-66
2021/12/01 10:29:31;;;;;;;0.33;0.17;;;;;;;6.91;76.08;96558.31;6371570;27;20193;-66
2021/12/01 10:32:34;;;;;;;0.10;0.10;;;;;;;6.94;76.03;96553.66;6371742;27;20196;-67
2021/12/01 10:35:37;;;;;;;0.30;0.30;;;;;;;6.97;75.94;96553.41;6371353;27;20734;-66
2021/12/01 10:38:45;;;;;;;0.20;0.20;;;;;;;7.00;76.02;96541.78;6371596;27;20266;-67
2021/12/01 10:41:47;;;;;;;0.20;0.20;;;;;;;7.01;75.90;96531.19;6371361;27;20204;-67
2021/12/01 10:44:58;;;;;;;3.67;0.30;;;;;;;7.01;74.90;96528.56;6352942;27;20198;-67
2021/12/01 10:48:01;;;;;;;1.47;0.30;;;;;;;7.00;75.57;96531.31;6371303;27;20204;-67
2021/12/01 10:51:04;;;;;;;0.23;0.20;;;;;;;6.97;76.04;96521.09;6351849;27;20222;-69
2021/12/01 10:54:20;;;;;;;2.43;0.60;;;;;;;6.90;76.14;96523.38;6353014;27;20197;-67
2021/12/01 10:57:23;;;;;;;0.17;0.13;;;;;;;6.83;76.72;96511.75;6352398;27;20197;-69
2021/12/01 11:00:32;;;;;;;0.20;0.20;;;;;;;6.76;77.75;96500.13;6352722;27;20198;-67
2021/12/01 11:03:35;;;;;;;0.30;0.30;;;;;;;6.73;77.58;96492.50;6370675;27;20228;-67
2021/12/01 11:06:40;;;;;;;0.37;0.23;;;;;;;6.74;77.69;96483.69;6335624;27;20202;-67
2021/12/01 11:09:42;;;;;;;0.20;0.10;;;;;;;6.75;77.66;96477.47;6371082;27;20664;-67
2021/12/01 11:12:54;;;;;;;0.40;0.20;;;;;;;6.76;78.21;96465.22;6370370;27;20266;-68
2021/12/01 11:15:59;;;;;;;0.63;0.40;;;;;;;6.74;77.84;96465.34;6370562;27;20202;-67
2021/12/01 11:19:32;;;;;;;0.67;0.10;;;;;;;6.77;77.86;96453.75;6370302;27;20212;-67
2021/12/01 11:22:36;;;;;;;0.53;0.20;;;;;;;6.72;77.99;96454.13;6370157;27;20419;-69
2021/12/01 11:25:39;;;;;;;0.20;0.20;;;;;;;6.69;77.87;96448.34;6370342;27;20198;-67
2021/12/01 11:28:46;;;;;;;0.20;0.20;;;;;;;6.65;78.25;96438.09;6370183;27;20249;-67
2021/12/01 11:31:48;;;;;;;0.10;0.10;;;;;;;6.62;78.10;96440.16;6369877;27;20212;-67
2021/12/01 11:34:50;;;;;;;0.17;0.17;;;;;;;6.57;77.93;96445.78;6370050;27;20240;-67
2021/12/01 11:37:57;;;;;;;0.30;0.20;;;;;;;6.59;78.09;96429.91;6371447;27;20186;-67
2021/12/01 11:41:05;;;;;;;2.10;0.33;;;;;;;6.63;77.68;96432.16;6369729;27;20559;-67
2021/12/01 11:44:12;;;;;;;0.43;0.40;;;;;;;6.69;77.43;96433.41;6351656;27;20222;-70
2021/12/01 11:47:16;;;;;;;0.40;0.30;;;;;;;6.74;77.21;96412.06;6369661;27;20190;-67
2021/12/01 11:50:26;;;;;;;0.40;0.30;;;;;;;6.75;77.06;96408.47;6369260;27;20181;-67
2021/12/01 11:53:37;;;;;;;0.60;0.40;;;;;;;6.75;77.30;96409.31;6369381;27;20240;-68
2021/12/01 11:56:49;;;;;;;1.37;0.60;;;;;;;6.74;76.05;96399.78;6351337;27;20201;-67
2021/12/01 11:59:51;;;;;;;0.67;0.60;;;;;;;6.76;75.65;96386.56;6351328;27;20194;-67
2021/12/01 12:02:53;;;;;;;0.80;0.77;;;;;;;6.78;74.92;96385.47;6369113;27;20189;-67
2021/12/01 12:06:18;;;;;;;2.43;0.60;;;;;;;6.78;74.22;96380.22;6368857;27;20194;-67
2021/12/01 12:09:22;;;;;;;0.57;0.50;;;;;;;6.80;73.85;96383.53;6369580;27;20191;-68
2021/12/01 12:12:24;;;;;;;0.93;0.70;;;;;;;6.83;74.00;96371.94;6369043;27;20279;-68
2021/12/01 12:15:37;;;;;;;1.47;0.63;;;;;;;6.83;73.54;96361.44;6369452;27;20191;-68
2021/12/01 12:18:40;;;;;;;1.17;0.60;;;;;;;6.83;73.23;96356.22;6369154;27;20185;-67
2021/12/01 12:21:59;;;;;;;1.97;1.00;;;;;;;6.78;73.77;96361.88;6369056;27;20639;-68
2021/12/01 12:25:05;;;;;;;0.50;0.50;;;;;;;6.74;74.01;96364.88;6369149;27;20193;-67
2021/12/01 12:28:32;;;;;;;0.60;0.60;;;;;;;6.72;73.81;96344.03;6369282;27;20191;-66
2021/12/01 12:31:34;;;;;;;1.43;1.03;;;;;;;6.68;74.22;96353.13;6349700;27;20756;-67
2021/12/01 12:34:50;;;;;;;1.50;0.80;;;;;;;6.66;74.19;96363.75;6369008;27;20189;-68
2021/12/01 12:38:08;;;;;;;0.50;0.50;;;;;;;6.66;74.12;96334.91;6369002;27;20197;-68
2021/12/01 12:41:13;;;;;;;2.50;1.40;;;;;;;6.71;73.76;96337.13;6349957;27;20202;-67
2021/12/01 12:44:34;;;;;;;1.27;0.80;;;;;;;6.86;73.74;96350.72;6350480;27;20196;-67
2021/12/01 12:47:56;;;;;;;2.37;1.13;;;;;;;7.24;71.93;96350.81;6368644;27;20200;-68
2021/12/01 12:51:16;;;;;;;2.50;1.10;;;;;;;8.84;67.01;96336.13;6349723;28;20194;-68
2021/12/01 12:54:18;;;;;;;1.00;0.90;;;;;;;9.78;63.68;96334.00;6368446;28;20688;-68
2021/12/01 12:57:22;;;;;;;2.10;0.90;;;;;;;9.60;63.39;96350.63;6368512;28;20189;-68
2021/12/01 13:00:34;;;;;;;3.13;1.07;;;;;;;9.12;64.74;96365.88;6334348;28;20180;-68
2021/12/01 13:03:38;;;;;;;2.27;1.27;;;;;;;8.97;65.64;96354.22;6368103;28;20167;-68
2021/12/01 13:06:40;;;;;;;2.17;1.23;;;;;;;8.78;65.23;96349.88;6350298;28;20192;-68
2021/12/01 13:09:42;;;;;;;6.10;1.33;;;;;;;8.72;65.69;96338.09;6368318;28;20215;-69
2021/12/01 13:12:52;;;;;;;4.27;1.67;;;;;;;8.68;66.45;96335.91;6349202;28;20275;-68
2021/12/01 13:15:54;;;;;;;2.00;0.77;;;;;;;8.59;67.73;96337.59;6371192;27;20202;-67
2021/12/01 13:19:07;;;;;;;0.93;0.90;;;;;;;8.55;67.45;96340.66;6373307;27;20220;-68
2021/12/01 13:22:13;;;;;;;1.87;0.77;;;;;;;8.41;67.28;96328.78;6354950;27;20571;-68
2021/12/01 13:25:30;;;;;;;1.43;0.70;;;;;;;8.33;67.39;96328.69;6373409;27;20207;-68
2021/12/01 13:28:40;;;;;;;1.50;0.90;;;;;;;8.15;67.65;96321.50;6355012;27;20558;-67
2021/12/01 13:31:46;;;;;;;0.90;0.50;;;;;;;8.02;68.12;96317.50;6372959;27;20205;-67
2021/12/01 13:34:49;;;;;;;0.50;0.50;;;;;;;7.87;69.83;96316.31;6373275;27;20184;-68
2021/12/01 13:37:57;;;;;;;0.37;0.30;;;;;;;7.77;70.08;96316.31;6372921;27;20211;-68
2021/12/01 13:41:17;;;;;;;0.53;0.40;;;;;;;7.75;70.55;96310.38;6372460;27;20639;-68
2021/12/01 13:44:37;;;;;;;2.53;0.57;;;;;;;7.71;70.75;96306.34;6373268;27;20407;-68
2021/12/01 13:47:41;;;;;;;1.73;0.40;;;;;;;7.67;70.78;96300.56;6372402;27;20571;-67
2021/12/01 13:50:43;;;;;;;1.60;0.30;;;;;;;7.61;70.82;96277.47;6372804;27;20885;-69
2021/12/01 13:53:45;;;;;;;1.50;0.40;;;;;;;7.59;70.60;96281.19;6372506;27;20714;-68
2021/12/01 13:57:12;;;;;;;0.50;0.37;;;;;;;7.57;70.92;96270.03;6372214;27;20221;-68
2021/12/01 14:00:16;;;;;;;1.70;0.40;;;;;;;7.45;71.74;96271.97;6360231;27;20527;-67
2021/12/01 14:03:19;;;;;;;0.70;0.50;;;;;;;7.27;72.62;96277.06;6353549;27;20217;-68
2021/12/01 14:06:31;;;;;;;0.80;0.60;;;;;;;7.04;72.89;96276.50;6372416;27;20187;-68
2021/12/01 14:09:52;;;;;;;0.50;0.50;;;;;;;6.85;74.11;96265.13;6372121;27;20214;-68
2021/12/01 14:12:58;;;;;;;1.40;0.30;;;;;;;6.61;75.04;96268.09;6371607;27;20599;-68
2021/12/01 14:16:01;;;;;;;0.50;0.47;;;;;;;6.48;75.43;96254.44;6372538;27;20183;-67
2021/12/01 14:19:06;;;;;;;0.40;0.40;;;;;;;6.35;75.55;96252.03;6353391;27;20202;-68
2021/12/01 14:22:14;;;;;;;0.47;0.47;;;;;;;6.24;76.71;96236.41;6353325;27;20262;-67
2021/12/01 14:25:17;;;;;;;0.60;0.60;;;;;;;6.13;76.80;96226.00;6371896;27;20559;-68
2021/12/01 14:28:19;;;;;;;0.60;0.50;;;;;;;6.01;77.27;96220.03;6351991;27;20193;-69
2021/12/01 14:31:22;;;;;;;0.80;0.57;;;;;;;5.79;76.76;96220.97;6371337;27;20189;-68
2021/12/01 14:34:29;;;;;;;0.40;0.40;;;;;;;5.61;77.56;96200.78;6353102;27;20196;-69
2021/12/01 14:37:34;;;;;;;0.60;0.30;;;;;;;5.41;78.35;96197.22;6371630;27;20177;-68
2021/12/01 14:40:49;;;;;;;0.37;0.37;;;;;;;5.26;78.71;96186.25;6353729;27;20242;-71